createdAt,value
2023-10-15T00:00:51.078Z,1.799
2023-10-15T00:01:50.807Z,1.600
2023-10-15T00:02:50.037Z,1.5
2023-10-15T00:03:49.782Z,1.799
2023-10-15T00:05:50.560Z,1.700
2023-10-15T00:06:50.421Z,1.600
2023-10-15T00:07:50.569Z,1.200
2023-10-15T00:08:51.140Z,1.700
2023-10-15T00:09:50.976Z,1.399
2023-10-15T00:10:49.257Z,1.299
2023-10-15T00:11:48.249Z,1.399
2023-10-15T00:12:46.938Z,1.299
2023-10-15T00:13:48.630Z,1.600
2023-10-15T00:14:49.174Z,1.200
2023-10-15T00:15:49.051Z,1.399
2023-10-15T00:16:49.853Z,1.5
2023-10-15T00:19:50.179Z,1.399
2023-10-15T00:20:49.679Z,1.299
2023-10-15T00:21:50.011Z,1.5
2023-10-15T00:22:50.668Z,1.700
2023-10-15T00:23:51.131Z,1.299
2023-10-15T00:24:49.860Z,1.5
2023-10-15T00:25:49.911Z,1.399
2023-10-15T00:26:50.204Z,1.5
2023-10-15T00:27:50.053Z,1.600
2023-10-15T00:29:50.419Z,1.899
2023-10-15T00:30:50.274Z,1.700
2023-10-15T00:32:48.979Z,1.899
2023-10-15T00:33:49.932Z,1.600
2023-10-15T00:34:48.499Z,1.700
2023-10-15T00:36:48.933Z,1.600
2023-10-15T00:39:51.093Z,1.5
2023-10-15T00:42:51.102Z,1.299
2023-10-15T00:43:48.597Z,1.5
2023-10-15T00:44:48.658Z,1.700
2023-10-15T00:45:49.891Z,1.600
2023-10-15T00:46:50.208Z,1.799
2023-10-15T00:47:49.801Z,1.600
2023-10-15T00:48:50.655Z,1.700
2023-10-15T00:51:49.931Z,1.799
2023-10-15T00:52:49.609Z,1.399
2023-10-15T00:53:49.980Z,1.700
2023-10-15T00:55:50.660Z,1.600
2023-10-15T00:56:51.008Z,1.399
2023-10-15T00:57:49.093Z,1.799
2023-10-15T00:58:49.315Z,1.700
2023-10-15T00:59:49.826Z,1.5
2023-10-15T01:00:48.878Z,1.399
2023-10-15T01:01:49.466Z,1.5
2023-10-15T01:03:50.039Z,1.600
2023-10-15T01:04:49.875Z,1.5
2023-10-15T01:06:49.113Z,1.399
2023-10-15T01:07:50.732Z,1.700
2023-10-15T01:08:49.074Z,1.5
2023-10-15T01:09:48.031Z,1.299
2023-10-15T01:10:48.186Z,1.700
2023-10-15T01:11:49.107Z,1.600
2023-10-15T01:12:50.082Z,1.399
2023-10-15T01:13:50.709Z,1.799
2023-10-15T01:14:49.911Z,1.600
2023-10-15T01:16:49.083Z,1.399
2023-10-15T01:17:48.544Z,1.700
2023-10-15T01:19:49.183Z,1.600
2023-10-15T01:20:50.296Z,1.899
2023-10-15T01:21:49.619Z,1.700
2023-10-15T01:22:50.011Z,1.600
2023-10-15T01:23:50.807Z,1.5
2023-10-15T01:24:50.069Z,1.600
2023-10-15T01:25:50.406Z,1.700
2023-10-15T01:26:50.946Z,1.600
2023-10-15T01:27:50.056Z,1.700
2023-10-15T01:28:50.571Z,1.600
2023-10-15T01:29:50.614Z,1.700
2023-10-15T01:30:50.801Z,1.600
2023-10-15T01:31:50.344Z,1.5
2023-10-15T01:32:49.138Z,1.799
2023-10-15T01:33:49.145Z,1.600
2023-10-15T01:34:48.726Z,1.399
2023-10-15T01:35:50.098Z,1.5
2023-10-15T01:36:49.278Z,1.700
2023-10-15T01:38:48.942Z,1.899
2023-10-15T01:39:49.459Z,1.600
2023-10-15T01:40:50.901Z,1.899
2023-10-15T01:41:50.468Z,1.399
2023-10-15T01:42:50.212Z,1.799
2023-10-15T01:43:48.205Z,1.700
2023-10-15T01:44:49.080Z,1.799
2023-10-15T01:45:50.577Z,1.600
2023-10-15T01:46:50.622Z,1.899
2023-10-15T01:47:50.695Z,1.799
2023-10-15T01:48:50.464Z,1.899
2023-10-15T01:49:50.955Z,1.600
2023-10-15T01:50:50.531Z,1.799
2023-10-15T01:51:51.123Z,1.899
2023-10-15T01:52:49.979Z,1.799
2023-10-15T01:53:49.060Z,1.399
2023-10-15T01:54:47.130Z,1.700
2023-10-15T01:55:48.994Z,1.899
2023-10-15T01:56:50.861Z,1.700
2023-10-15T01:57:50.387Z,2
2023-10-15T01:58:49.989Z,1.600
2023-10-15T01:59:50.513Z,1.700
2023-10-15T02:00:49.535Z,1.5
2023-10-15T02:01:50.095Z,1.700
2023-10-15T02:02:51.568Z,1.799
2023-10-15T02:03:49.355Z,1.899
2023-10-15T02:04:49.401Z,2
2023-10-15T02:05:49.093Z,1.899
2023-10-15T02:06:50.431Z,1.700
2023-10-15T02:07:48.967Z,1.600
2023-10-15T02:08:49.691Z,1.700
2023-10-15T02:09:49.870Z,1.600
2023-10-15T02:10:50.762Z,1.700
2023-10-15T02:11:49.822Z,1.399
2023-10-15T02:12:49.609Z,1.799
2023-10-15T02:18:48.578Z,2.400
2023-10-15T02:19:49.487Z,1.700
2023-10-15T02:20:50.361Z,1.799
2023-10-15T02:21:50.427Z,2.200
2023-10-15T02:22:48.895Z,1.700
2023-10-15T02:23:48.249Z,1.799
2023-10-15T02:25:50.507Z,1.899
2023-10-15T02:27:50.545Z,1.700
2023-10-15T02:28:49.905Z,2
2023-10-15T02:29:50.259Z,1.799
2023-10-15T02:30:50.033Z,1.700
2023-10-15T02:31:50.669Z,1.899
2023-10-15T02:32:50.937Z,2.299
2023-10-15T02:33:50.766Z,1.899
2023-10-15T02:34:49.368Z,2
2023-10-15T02:36:51.034Z,2.099
2023-10-15T02:37:49.812Z,2.200
2023-10-15T02:38:49.516Z,2
2023-10-15T02:39:50.658Z,2.400
2023-10-15T02:40:50.060Z,2.299
2023-10-15T02:41:49.908Z,2
2023-10-15T02:43:50.141Z,2.200
2023-10-15T02:44:50.195Z,1.899
2023-10-15T02:45:50.168Z,2.200
2023-10-15T02:46:49.856Z,2.099
2023-10-15T02:47:50.003Z,2.200
2023-10-15T02:48:49.868Z,2.400
2023-10-15T02:49:49.776Z,2.700
2023-10-15T02:50:50.108Z,2.299
2023-10-15T02:51:50.505Z,2.5
2023-10-15T02:53:51.824Z,2.599
2023-10-15T02:55:49.092Z,2.299
2023-10-15T02:57:49.386Z,2.5
2023-10-15T02:58:48.659Z,2.799
2023-10-15T02:59:48.187Z,2.5
2023-10-15T03:00:50.010Z,2.599
2023-10-15T03:01:48.842Z,2.700
2023-10-15T03:02:50.501Z,2.799
2023-10-15T03:03:50.516Z,2.599
2023-10-15T03:04:49.816Z,2.799
2023-10-15T03:05:50.135Z,2.599
2023-10-15T03:06:50.487Z,2.799
2023-10-15T03:07:50.422Z,2.5
2023-10-15T03:08:50.586Z,2.599
2023-10-15T03:09:50.278Z,2.400
2023-10-15T03:10:50.518Z,2.599
2023-10-15T03:11:50.702Z,2.700
2023-10-15T03:13:49.085Z,2.400
2023-10-15T03:14:50.774Z,2.799
2023-10-15T03:15:50.529Z,2.5
2023-10-15T03:16:50.774Z,2.799
2023-10-15T03:17:50.520Z,2.599
2023-10-15T03:18:49.358Z,2.799
2023-10-15T03:19:49.613Z,2.5
2023-10-15T03:20:49.267Z,2.700
2023-10-15T03:22:49.413Z,2.799
2023-10-15T03:24:49.604Z,2.599
2023-10-15T03:25:50.657Z,2.5
2023-10-15T03:26:49.409Z,2.599
2023-10-15T03:28:50.365Z,2.700
2023-10-15T03:29:49.645Z,2.799
2023-10-15T03:30:50.156Z,2.599
2023-10-15T03:31:49.871Z,2.700
2023-10-15T03:32:49.079Z,2.900
2023-10-15T03:33:49.427Z,2.599
2023-10-15T03:34:49.642Z,2.5
2023-10-15T03:36:49.263Z,2.700
2023-10-15T03:37:50.000Z,2.5
2023-10-15T03:38:50.293Z,2.900
2023-10-15T03:39:49.837Z,2.700
2023-10-15T03:42:49.235Z,2.799
2023-10-15T03:43:49.621Z,2.700
2023-10-15T03:44:50.178Z,2.799
2023-10-15T03:46:49.945Z,2.700
2023-10-15T03:48:48.720Z,3
2023-10-15T03:49:48.877Z,2.599
2023-10-15T03:50:47.574Z,2.700
2023-10-15T03:52:47.572Z,3.099
2023-10-15T03:53:48.889Z,2.799
2023-10-15T03:55:49.392Z,2.700
2023-10-15T03:56:50.079Z,2.900
2023-10-15T03:57:48.989Z,2.5
2023-10-15T03:58:50.058Z,3
2023-10-15T04:00:49.576Z,2.5
2023-10-15T04:01:50.072Z,2.900
2023-10-15T04:02:49.804Z,2.5
2023-10-15T04:03:48.902Z,2.599
2023-10-15T04:04:49.368Z,2.700
2023-10-15T04:05:48.874Z,2.799
2023-10-15T04:06:50.465Z,2.5
2023-10-15T04:08:50.276Z,2.599
2023-10-15T04:09:50.276Z,2.700
2023-10-15T04:10:49.006Z,2.599
2023-10-15T04:11:49.797Z,2.200
2023-10-15T04:12:49.471Z,2.599
2023-10-15T04:13:48.237Z,2.5
2023-10-15T04:15:50.129Z,2.400
2023-10-15T04:16:50.495Z,2.299
2023-10-15T04:17:50.104Z,2.400
2023-10-15T04:18:50.502Z,2.5
2023-10-15T04:20:50.700Z,2.299
2023-10-15T04:21:49.067Z,2.099
2023-10-15T04:23:50.569Z,2.200
2023-10-15T04:24:50.718Z,2.299
2023-10-15T04:26:49.674Z,2
2023-10-15T04:27:50.323Z,2.299
2023-10-15T04:28:51.012Z,2
2023-10-15T04:29:48.813Z,1.899
2023-10-15T04:30:49.543Z,2.099
2023-10-15T04:31:50.448Z,2
2023-10-15T04:32:49.266Z,1.799
2023-10-15T04:33:49.225Z,2
2023-10-15T04:34:49.075Z,2.099
2023-10-15T04:35:48.820Z,2
2023-10-15T04:36:49.770Z,1.899
2023-10-15T04:37:49.434Z,2
2023-10-15T04:39:58.365Z,1.899
2023-10-15T04:41:51.961Z,1.799
2023-10-15T04:43:50.054Z,1.899
2023-10-15T04:44:50.516Z,1.799
2023-10-15T04:45:51.087Z,1.899
2023-10-15T04:47:50.784Z,1.700
2023-10-15T04:48:50.335Z,1.899
2023-10-15T04:49:50.667Z,2
2023-10-15T04:50:49.987Z,2.099
2023-10-15T04:51:49.578Z,1.799
2023-10-15T04:52:50.185Z,1.899
2023-10-15T04:53:49.547Z,2
2023-10-15T04:54:48.390Z,1.5
2023-10-15T04:55:48.752Z,1.700
2023-10-15T04:56:48.004Z,1.799
2023-10-15T04:57:48.914Z,1.700
2023-10-15T04:58:49.293Z,1.899
2023-10-15T04:59:49.483Z,1.600
2023-10-15T05:00:51.182Z,1.799
2023-10-15T05:01:50.074Z,1.700
2023-10-15T05:02:49.915Z,1.600
2023-10-15T05:03:50.142Z,1.700
2023-10-15T05:04:49.233Z,1.799
2023-10-15T05:05:49.601Z,1.700
2023-10-15T05:07:48.854Z,1.600
2023-10-15T05:08:50.334Z,1.5
2023-10-15T05:09:50.082Z,1.299
2023-10-15T05:10:50.808Z,1.600
2023-10-15T05:11:48.864Z,1.899
2023-10-15T05:12:49.677Z,1.799
2023-10-15T05:13:49.381Z,2
2023-10-15T05:14:50.348Z,1.799
2023-10-15T05:15:50.781Z,1.399
2023-10-15T05:16:49.205Z,1.5
2023-10-15T05:17:50.385Z,1.299
2023-10-15T05:18:49.338Z,1.700
2023-10-15T05:19:50.153Z,1.299
2023-10-15T05:21:48.976Z,1.399
2023-10-15T05:22:49.749Z,1.200
2023-10-15T05:23:50.677Z,1.299
2023-10-15T05:24:50.135Z,1.399
2023-10-15T05:25:48.366Z,1.299
2023-10-15T05:27:50.048Z,1.200
2023-10-15T05:28:48.285Z,1.299
2023-10-15T05:29:49.671Z,1.399
2023-10-15T05:31:50.515Z,1.299
2023-10-15T05:32:50.407Z,1.600
2023-10-15T05:33:49.850Z,1.399
2023-10-15T05:34:50.066Z,1.299
2023-10-15T05:35:49.288Z,1.700
2023-10-15T05:36:50.206Z,1.399
2023-10-15T05:37:49.499Z,1.600
2023-10-15T05:38:48.585Z,1.299
2023-10-15T05:39:47.713Z,1.5
2023-10-15T05:40:49.742Z,1.399
2023-10-15T05:41:49.480Z,1.5
2023-10-15T05:44:50.789Z,1.700
2023-10-15T05:45:51.135Z,1.5
2023-10-15T05:46:49.309Z,1.299
2023-10-15T05:47:49.943Z,1.399
2023-10-15T05:48:49.383Z,1.100
2023-10-15T05:49:50.410Z,1.299
2023-10-15T05:50:48.453Z,1.200
2023-10-15T05:51:49.153Z,1.100
2023-10-15T05:53:49.139Z,1
2023-10-15T05:54:49.228Z,0.899
2023-10-15T05:55:49.245Z,1.399
2023-10-15T05:56:49.216Z,1.200
2023-10-15T05:57:47.933Z,1.399
2023-10-15T05:58:49.054Z,1.5
2023-10-15T05:59:48.930Z,1.200
2023-10-15T06:02:50.366Z,1.299
2023-10-15T06:03:50.043Z,1.200
2023-10-15T06:04:50.703Z,1.600
2023-10-15T06:05:50.247Z,1.299
2023-10-15T06:06:50.731Z,1
2023-10-15T06:07:51.192Z,1.299
2023-10-15T06:08:50.266Z,1.700
2023-10-15T06:09:49.537Z,1.5
2023-10-15T06:11:49.048Z,1.299
2023-10-15T06:13:49.598Z,1.5
2023-10-15T06:14:48.946Z,1.600
2023-10-15T06:15:48.595Z,1.399
2023-10-15T06:16:48.821Z,1.799
2023-10-15T06:17:50.335Z,1.399
2023-10-15T06:18:49.809Z,1.5
2023-10-15T06:19:50.311Z,1.799
2023-10-15T06:20:49.204Z,1.600
2023-10-15T06:21:49.324Z,1.299
2023-10-15T06:22:49.630Z,1.399
2023-10-15T06:23:49.831Z,1.200
2023-10-15T06:24:49.699Z,1.399
2023-10-15T06:25:51.209Z,1.5
2023-10-15T06:27:49.182Z,1.200
2023-10-15T06:29:47.603Z,1.600
2023-10-15T06:30:49.410Z,1.399
2023-10-15T06:31:50.369Z,1.299
2023-10-15T06:32:49.901Z,1.399
2023-10-15T06:33:48.668Z,1.700
2023-10-15T06:34:48.123Z,1.799
2023-10-15T06:35:47.563Z,1.700
2023-10-15T06:37:49.330Z,1.5
2023-10-15T06:38:49.335Z,1.399
2023-10-15T06:39:50.707Z,1.5
2023-10-15T06:42:49.873Z,1.600
2023-10-15T06:45:51.384Z,1.899
2023-10-15T06:47:51.029Z,2
2023-10-15T06:48:50.073Z,1.700
2023-10-15T06:49:50.258Z,1.600
2023-10-15T06:50:48.901Z,1.5
2023-10-15T06:51:47.265Z,1.799
2023-10-15T06:52:48.610Z,1.700
2023-10-15T06:54:48.089Z,2
2023-10-15T06:55:49.302Z,2.099
2023-10-15T06:56:48.890Z,2.200
2023-10-15T06:57:49.075Z,2
2023-10-15T06:58:49.337Z,2.099
2023-10-15T07:00:50.876Z,1.700
2023-10-15T07:01:50.860Z,2.200
2023-10-15T07:02:50.731Z,2.099
2023-10-15T07:04:51.257Z,2
2023-10-15T07:05:50.566Z,2.5
2023-10-15T07:06:51.392Z,2
2023-10-15T07:07:50.926Z,2.099
2023-10-15T07:09:50.367Z,1.899
2023-10-15T07:10:49.468Z,2
2023-10-15T07:11:49.932Z,1.799
2023-10-15T07:12:50.584Z,2
2023-10-15T07:14:49.663Z,1.799
2023-10-15T07:15:50.487Z,2.200
2023-10-15T07:16:50.551Z,1.899
2023-10-15T07:18:51.464Z,1.799
2023-10-15T07:19:51.219Z,1.700
2023-10-15T07:20:50.592Z,2.099
2023-10-15T07:21:50.475Z,1.700
2023-10-15T07:22:51.409Z,1.600
2023-10-15T07:23:51.193Z,2.099
2023-10-15T07:24:50.594Z,1.899
2023-10-15T07:25:50.600Z,2
2023-10-15T07:28:49.896Z,2.099
2023-10-15T07:29:49.776Z,2.200
2023-10-15T07:30:50.726Z,2.099
2023-10-15T07:31:51.074Z,1.799
2023-10-15T07:32:50.798Z,2
2023-10-15T07:33:50.895Z,2.200
2023-10-15T07:34:51.062Z,1.899
2023-10-15T07:35:49.535Z,2.400
2023-10-15T07:36:48.766Z,1.899
2023-10-15T07:37:49.215Z,2.5
2023-10-15T07:38:48.859Z,2.400
2023-10-15T07:40:50.142Z,2.799
2023-10-15T07:41:49.359Z,3.099
2023-10-15T07:42:49.260Z,2.799
2023-10-15T07:43:49.779Z,2.900
2023-10-15T07:44:49.813Z,2.599
2023-10-15T07:46:50.879Z,2.200
2023-10-15T07:48:49.992Z,2.400
2023-10-15T07:49:49.389Z,2.200
2023-10-15T07:50:51.087Z,2
2023-10-15T07:51:50.688Z,2.200
2023-10-15T07:52:49.575Z,2.700
2023-10-15T07:54:49.250Z,2.5
2023-10-15T07:55:50.001Z,2.200
2023-10-15T07:56:49.530Z,2.400
2023-10-15T07:57:50.712Z,2.299
2023-10-15T07:58:50.166Z,2.200
2023-10-15T07:59:50.300Z,2
2023-10-15T08:01:49.843Z,2.099
2023-10-15T08:02:48.708Z,1.899
2023-10-15T08:03:47.461Z,2.200
2023-10-15T08:04:49.110Z,1.899
2023-10-15T08:05:50.324Z,2.200
2023-10-15T08:06:50.880Z,1.799
2023-10-15T08:07:50.648Z,1.700
2023-10-15T08:08:49.543Z,2.799
2023-10-15T08:09:49.998Z,2.599
2023-10-15T08:11:49.807Z,2
2023-10-15T08:13:50.806Z,2.400
2023-10-15T08:14:50.484Z,2.299
2023-10-15T08:15:49.794Z,2.200
2023-10-15T08:17:49.991Z,2
2023-10-15T08:18:49.770Z,1.700
2023-10-15T08:19:50.149Z,1.799
2023-10-15T08:20:50.739Z,1.700
2023-10-15T08:21:50.627Z,1.799
2023-10-15T08:23:50.544Z,1.700
2023-10-15T08:24:49.133Z,1.600
2023-10-15T08:27:48.547Z,1.5
2023-10-15T08:28:48.784Z,1.399
2023-10-15T08:29:49.859Z,1.700
2023-10-15T08:30:50.203Z,1.600
2023-10-15T08:31:50.911Z,1.899
2023-10-15T08:32:50.390Z,1.399
2023-10-15T08:33:51.467Z,1.700
2023-10-15T08:34:51.678Z,1.799
2023-10-15T08:35:50.339Z,1.600
2023-10-15T08:36:50.836Z,1.200
2023-10-15T08:37:50.865Z,1.600
2023-10-15T08:39:50.531Z,1.700
2023-10-15T08:40:51.837Z,1.600
2023-10-15T08:41:50.653Z,2
2023-10-15T08:42:48.669Z,1.600
2023-10-15T08:43:48.938Z,1.700
2023-10-15T08:44:48.827Z,1.799
2023-10-15T08:45:47.832Z,1.700
2023-10-15T08:46:48.795Z,2
2023-10-15T08:47:49.707Z,1.799
2023-10-15T08:48:50.084Z,2
2023-10-15T08:49:50.303Z,1.700
2023-10-15T08:50:49.950Z,2.099
2023-10-15T08:51:52.245Z,1.799
2023-10-15T08:53:50.768Z,1.700
2023-10-15T08:54:50.188Z,1.5
2023-10-15T08:55:48.719Z,1.700
2023-10-15T08:56:49.278Z,1.799
2023-10-15T08:57:50.162Z,1.700
2023-10-15T08:58:48.011Z,2
2023-10-15T08:59:48.995Z,1.799
2023-10-15T09:02:50.122Z,2
2023-10-15T09:03:49.556Z,2.700
2023-10-15T09:04:50.529Z,2.200
2023-10-15T09:05:50.553Z,2
2023-10-15T09:06:49.953Z,1.799
2023-10-15T09:07:50.887Z,1.899
2023-10-15T09:09:49.210Z,1.799
2023-10-15T09:11:52.769Z,1.600
2023-10-15T09:13:50.751Z,1.700
2023-10-15T09:14:49.114Z,1.5
2023-10-15T09:15:49.274Z,1.799
2023-10-15T09:16:49.631Z,1.600
2023-10-15T09:17:50.164Z,1.5
2023-10-15T09:19:50.198Z,1.600
2023-10-15T09:20:50.033Z,1.799
2023-10-15T09:22:49.428Z,1.899
2023-10-15T09:23:49.452Z,2
2023-10-15T09:24:47.880Z,1.799
2023-10-15T09:26:49.488Z,1.700
2023-10-15T09:28:48.532Z,2.099
2023-10-15T09:29:49.303Z,1.799
2023-10-15T09:30:50.960Z,2.299
2023-10-15T09:31:51.134Z,1.899
2023-10-15T09:33:49.751Z,2
2023-10-15T09:34:49.426Z,2.099
2023-10-15T09:35:50.265Z,2
2023-10-15T09:36:49.960Z,2.299
2023-10-15T09:37:49.337Z,2.200
2023-10-15T09:39:49.210Z,2.099
2023-10-15T09:40:50.238Z,1.799
2023-10-15T09:41:49.581Z,2.400
2023-10-15T09:42:50.444Z,2.299
2023-10-15T09:43:49.136Z,2.099
2023-10-15T09:44:49.401Z,2.400
2023-10-15T09:45:48.192Z,2.099
2023-10-15T09:46:48.913Z,2.400
2023-10-15T09:47:48.944Z,3.200
2023-10-15T09:48:47.592Z,3.400
2023-10-15T09:49:49.751Z,3.099
2023-10-15T09:50:49.057Z,2.5
2023-10-15T09:51:49.513Z,2.599
2023-10-15T09:52:50.390Z,2.099
2023-10-15T09:53:50.184Z,2.200
2023-10-15T09:55:50.987Z,2.099
2023-10-15T09:56:50.536Z,1.899
2023-10-15T09:57:51.029Z,1.700
2023-10-15T09:58:51.442Z,1.799
2023-10-15T10:03:50.924Z,1.700
2023-10-15T10:04:50.682Z,1.5
2023-10-15T10:05:50.283Z,1.799
2023-10-15T10:07:50.044Z,1.899
2023-10-15T10:08:48.459Z,1.600
2023-10-15T10:09:46.759Z,2.099
2023-10-15T10:10:46.861Z,1.700
2023-10-15T10:11:48.922Z,1.600
2023-10-15T10:12:50.416Z,1.700
2023-10-15T10:15:48.901Z,1.899
2023-10-15T10:17:49.182Z,1.700
2023-10-15T10:19:50.621Z,1.799
2023-10-15T10:20:50.371Z,1.899
2023-10-15T10:22:50.309Z,2
2023-10-15T10:23:49.394Z,1.799
2023-10-15T10:24:49.847Z,1.899
2023-10-15T10:25:49.706Z,1.700
2023-10-15T10:26:49.195Z,1.600
2023-10-15T10:27:49.429Z,1.700
2023-10-15T10:28:49.246Z,1.5
2023-10-15T10:29:47.945Z,1.399
2023-10-15T10:32:48.546Z,1.299
2023-10-15T10:33:49.015Z,1.399
2023-10-15T10:34:50.078Z,1.5
2023-10-15T10:35:50.272Z,1.700
2023-10-15T10:36:49.635Z,1.5
2023-10-15T10:37:50.468Z,1.299
2023-10-15T10:38:49.660Z,1.600
2023-10-15T10:39:50.471Z,1.399
2023-10-15T10:40:50.996Z,1.600
2023-10-15T10:41:51.356Z,1.799
2023-10-15T10:42:50.369Z,1.5
2023-10-15T10:43:54.139Z,1.700
2023-10-15T10:44:53.557Z,1.600
2023-10-15T10:45:51.786Z,2
2023-10-15T10:46:49.975Z,1.799
2023-10-15T10:47:49.644Z,1.5
2023-10-15T10:48:49.835Z,1.600
2023-10-15T10:49:47.709Z,1.5
2023-10-15T10:50:48.687Z,1.600
2023-10-15T10:51:49.467Z,1.700
2023-10-15T10:52:49.558Z,1.5
2023-10-15T10:53:49.234Z,1.600
2023-10-15T10:54:50.145Z,1.700
2023-10-15T10:55:50.088Z,1.600
2023-10-15T10:56:49.461Z,1.700
2023-10-15T10:57:49.857Z,1.399
2023-10-15T10:59:49.841Z,1.5
2023-10-15T11:00:47.814Z,1.700
2023-10-15T11:01:48.995Z,1.5
2023-10-15T11:02:49.449Z,1.799
2023-10-15T11:03:50.493Z,1.299
2023-10-15T11:04:50.556Z,1.399
2023-10-15T11:05:49.467Z,1.700
2023-10-15T11:06:50.284Z,1.399
2023-10-15T11:08:49.504Z,1.5
2023-10-15T11:10:49.540Z,1.700
2023-10-15T11:12:51.286Z,1.299
2023-10-15T11:13:50.715Z,1.399
2023-10-15T11:14:50.802Z,1.200
2023-10-15T11:15:51.044Z,1.5
2023-10-15T11:17:50.748Z,1.100
2023-10-15T11:18:50.769Z,1.200
2023-10-15T11:20:48.440Z,1.700
2023-10-15T11:21:49.640Z,1.5
2023-10-15T11:22:49.607Z,1.200
2023-10-15T11:23:49.604Z,1.600
2023-10-15T11:24:49.818Z,2.099
2023-10-15T11:25:50.081Z,1.299
2023-10-15T11:26:49.243Z,1.600
2023-10-15T11:27:49.801Z,1.299
2023-10-15T11:30:49.165Z,1.399
2023-10-15T11:31:49.872Z,1.299
2023-10-15T11:32:50.219Z,1.399
2023-10-15T11:34:49.289Z,1.299
2023-10-15T11:35:48.743Z,1.399
2023-10-15T11:38:51.231Z,1.700
2023-10-15T11:39:50.200Z,1.299
2023-10-15T11:40:50.644Z,1.5
2023-10-15T11:41:48.696Z,1.399
2023-10-15T11:44:50.742Z,1.299
2023-10-15T11:45:50.797Z,1.100
2023-10-15T11:47:51.013Z,1
2023-10-15T11:48:50.356Z,0.899
2023-10-15T11:49:49.534Z,1.200
2023-10-15T11:50:50.707Z,1.299
2023-10-15T11:51:50.352Z,1.100
2023-10-15T11:52:50.399Z,1
2023-10-15T11:53:51.471Z,1.299
2023-10-15T11:54:52.657Z,1.100
2023-10-15T11:56:51.812Z,1.299
2023-10-15T11:57:53.068Z,1.399
2023-10-15T11:58:52.832Z,1.200
2023-10-15T11:59:56.323Z,1.299
2023-10-15T12:00:53.820Z,1.399
2023-10-15T12:01:52.250Z,1.200
2023-10-15T12:02:51.924Z,1.100
2023-10-15T12:03:52.719Z,1.399
2023-10-15T12:04:53.715Z,1.100
2023-10-15T12:05:52.864Z,1
2023-10-15T12:06:53.276Z,1.600
2023-10-15T12:07:54.414Z,1.399
2023-10-15T12:08:52.807Z,1.299
2023-10-15T12:11:49.747Z,1.200
2023-10-15T12:12:50.584Z,1.5
2023-10-15T12:13:50.507Z,1.399
2023-10-15T12:14:51.223Z,1.299
2023-10-15T12:15:52.630Z,1.399
2023-10-15T12:16:52.428Z,1.299
2023-10-15T12:20:04.106Z,1.399
2023-10-15T12:20:48.143Z,1.200
2023-10-15T12:21:48.144Z,1.299
2023-10-15T12:22:43.568Z,1.200
2023-10-15T12:23:47.748Z,1.399
2023-10-15T12:24:49.989Z,1.5
2023-10-15T12:25:51.404Z,1.100
2023-10-15T12:26:52.006Z,1.600
2023-10-15T12:27:52.341Z,1.200
2023-10-15T12:30:52.286Z,1.899
2023-10-15T12:31:51.268Z,1.299
2023-10-15T12:33:51.599Z,1.100
2023-10-15T12:34:52.213Z,1.200
2023-10-15T12:35:51.595Z,1.100
2023-10-15T12:36:51.073Z,1.299
2023-10-15T12:38:52.294Z,1.200
2023-10-15T12:40:51.551Z,1.299
2023-10-15T12:43:50.786Z,1.399
2023-10-15T12:44:49.121Z,1.299
2023-10-15T12:47:49.716Z,0.899
2023-10-15T12:48:49.813Z,1.299
2023-10-15T12:49:51.463Z,1
2023-10-15T12:50:50.332Z,1.299
2023-10-15T12:51:50.668Z,0.899
2023-10-15T12:53:51.448Z,1.200
2023-10-15T12:54:51.007Z,1
2023-10-15T12:55:51.306Z,1.100
2023-10-15T12:56:51.364Z,1.299
2023-10-15T12:57:50.269Z,0.800
2023-10-15T12:58:49.592Z,1.100
2023-10-15T12:59:51.029Z,0.800
2023-10-15T13:00:50.770Z,0.899
2023-10-15T13:01:50.213Z,1.200
2023-10-15T13:02:51.832Z,0.899
2023-10-15T13:03:51.444Z,1
2023-10-15T13:04:51.747Z,0.899
2023-10-15T13:06:50.708Z,1
2023-10-15T13:07:50.527Z,1.100
2023-10-15T13:08:50.638Z,1.200
2023-10-15T13:09:50.414Z,1
2023-10-15T13:11:49.586Z,1.100
2023-10-15T13:13:50.706Z,0.800
2023-10-15T13:14:51.231Z,0.899
2023-10-15T13:16:52.365Z,0.800
2023-10-15T13:18:50.866Z,1
2023-10-15T13:19:50.541Z,0.800
2023-10-15T13:20:51.404Z,0.699
2023-10-15T13:21:51.555Z,0.800
2023-10-15T13:23:51.058Z,0.899
2023-10-15T13:24:51.037Z,1
2023-10-15T13:25:51.409Z,1.100
2023-10-15T13:26:51.674Z,0.899
2023-10-15T13:27:51.097Z,1
2023-10-15T13:28:50.180Z,0.899
2023-10-15T13:29:49.262Z,1.100
2023-10-15T13:30:49.432Z,0.899
2023-10-15T13:31:50.722Z,1
2023-10-15T13:32:51.512Z,0.800
2023-10-15T13:33:50.711Z,1
2023-10-15T13:34:51.679Z,0.899
2023-10-15T13:35:50.038Z,1.100
2023-10-15T13:36:51.010Z,0.899
2023-10-15T13:37:50.689Z,0.800
2023-10-15T13:38:51.012Z,1
2023-10-15T13:39:49.442Z,0.899
2023-10-15T13:40:51.051Z,1
2023-10-15T13:43:51.914Z,0.899
2023-10-15T13:45:53.509Z,0.800
2023-10-15T13:46:52.878Z,0.899
2023-10-15T13:47:52.493Z,1.100
2023-10-15T13:48:51.620Z,1
2023-10-15T13:49:52.664Z,0.899
2023-10-15T13:50:51.121Z,1
2023-10-15T13:51:51.844Z,0.899
2023-10-15T13:54:51.780Z,0.800
2023-10-15T13:55:51.538Z,1
2023-10-15T13:56:51.546Z,0.899
2023-10-15T13:59:52.318Z,1
2023-10-15T14:00:51.402Z,0.800
2023-10-15T14:01:51.586Z,0.899
2023-10-15T14:02:51.758Z,1.100
2023-10-15T14:03:52.152Z,1
2023-10-15T14:05:51.645Z,1.100
2023-10-15T14:06:52.084Z,0.899
2023-10-15T14:07:52.132Z,1.100
2023-10-15T14:08:51.797Z,0.800
2023-10-15T14:09:52.660Z,0.699
2023-10-15T14:10:52.101Z,1.100
2023-10-15T14:12:53.045Z,0.899
2023-10-15T14:13:52.689Z,1
2023-10-15T14:14:50.910Z,0.899
2023-10-15T14:16:52.771Z,1
2023-10-15T14:18:51.901Z,0.899
2023-10-15T14:19:50.953Z,1.100
2023-10-15T14:20:51.047Z,0.899
2023-10-15T14:21:51.992Z,0.800
2023-10-15T14:23:51.541Z,1
2023-10-15T14:24:51.840Z,0.899
2023-10-15T14:25:53.132Z,1
2023-10-15T14:26:52.376Z,1.100
2023-10-15T14:27:51.662Z,0.899
2023-10-15T14:28:52.150Z,1
2023-10-15T14:30:52.335Z,1.200
2023-10-15T14:31:52.382Z,0.899
2023-10-15T14:32:51.966Z,1.200
2023-10-15T14:34:52.741Z,1.100
2023-10-15T14:35:52.802Z,1
2023-10-15T14:36:52.787Z,1.200
2023-10-15T14:37:52.798Z,1
2023-10-15T14:38:51.918Z,1.100
2023-10-15T14:39:51.096Z,0.899
2023-10-15T14:40:50.808Z,1.200
2023-10-15T14:41:51.004Z,1.399
2023-10-15T14:42:54.167Z,1
2023-10-15T14:43:53.039Z,1.100
2023-10-15T14:44:51.861Z,1
2023-10-15T14:45:51.420Z,0.899
2023-10-15T14:46:51.997Z,1
2023-10-15T14:47:51.241Z,1.200
2023-10-15T14:48:49.531Z,1.399
2023-10-15T14:49:49.887Z,1
2023-10-15T14:50:51.568Z,0.899
2023-10-15T14:51:51.256Z,1.100
2023-10-15T14:52:50.983Z,0.899
2023-10-15T14:54:51.234Z,1
2023-10-15T14:56:51.111Z,1.100
2023-10-15T14:57:50.237Z,1
2023-10-15T15:02:52.040Z,0.899
2023-10-15T15:03:54.860Z,1.100
2023-10-15T15:06:51.647Z,1.200
2023-10-15T15:08:50.765Z,1.100
2023-10-15T15:10:51.588Z,1.299
2023-10-15T15:11:51.105Z,1.600
2023-10-15T15:12:49.776Z,1
2023-10-15T15:13:50.438Z,1.100
2023-10-15T15:14:50.120Z,1.399
2023-10-15T15:16:50.427Z,1.200
2023-10-15T15:19:51.483Z,1.100
2023-10-15T15:20:50.772Z,1.299
2023-10-15T15:21:51.194Z,1.399
2023-10-15T15:22:51.415Z,1.200
2023-10-15T15:23:51.200Z,1.100
2023-10-15T15:24:50.705Z,1.299
2023-10-15T15:25:51.265Z,1.399
2023-10-15T15:26:50.006Z,1.5
2023-10-15T15:27:50.174Z,1.399
2023-10-15T15:28:50.363Z,1.200
2023-10-15T15:29:50.649Z,1.399
2023-10-15T15:30:51.939Z,1.200
2023-10-15T15:31:52.589Z,1.299
2023-10-15T15:32:52.831Z,1.600
2023-10-15T15:33:52.986Z,1.399
2023-10-15T15:34:53.230Z,1.100
2023-10-15T15:35:54.253Z,1
2023-10-15T15:36:54.434Z,1.100
2023-10-15T15:37:53.428Z,1.5
2023-10-15T15:38:52.205Z,1.100
2023-10-15T15:39:52.102Z,1.200
2023-10-15T15:44:49.899Z,1.399
2023-10-15T15:45:50.020Z,1
2023-10-15T15:46:51.605Z,1.399
2023-10-15T15:47:50.663Z,1.200
2023-10-15T15:49:51.771Z,1.399
2023-10-15T15:50:52.603Z,1.299
2023-10-15T15:51:52.745Z,1.5
2023-10-15T15:52:51.562Z,1.100
2023-10-15T15:53:52.457Z,1
2023-10-15T15:54:51.253Z,1.299
2023-10-15T15:55:51.530Z,1
2023-10-15T15:56:49.491Z,1.399
2023-10-15T15:57:51.482Z,0.899
2023-10-15T15:58:51.178Z,1.299
2023-10-15T15:59:51.622Z,1
2023-10-15T16:00:52.040Z,1.100
2023-10-15T16:01:50.722Z,0.899
2023-10-15T16:02:50.748Z,1.100
2023-10-15T16:03:53.513Z,1.200
2023-10-15T16:04:53.443Z,1.100
2023-10-15T16:05:53.249Z,1
2023-10-15T16:07:51.478Z,1.100
2023-10-15T16:09:51.461Z,1.399
2023-10-15T16:10:51.476Z,1.200
2023-10-15T16:11:51.506Z,1
2023-10-15T16:12:50.160Z,0.899